sensor_id;sensor_type;location;lat;lon;timestamp;P1;durP1;ratioP1;P2;durP2;ratioP2
20441;SDS011;10380;52.102;20.614;2023-03-01T00:01:12;72.67;;;38.00;;
20441;SDS011;10380;52.102;20.614;2023-03-01T00:03:42;77.70;;;37.00;;
20441;SDS011;10380;52.102;20.614;2023-03-01T00:06:10;65.63;;;35.17;;
20441;SDS011;10380;52.102;20.614;2023-03-01T00:08:37;67.57;;;35.97;;
20441;SDS011;10380;52.102;20.614;2023-03-01T00:11:05;82.90;;;40.30;;
20441;SDS011;10380;52.102;20.614;2023-03-01T00:13:36;80.30;;;37.20;;
20441;SDS011;10380;52.102;20.614;2023-03-01T00:16:04;80.13;;;36.80;;
20441;SDS011;10380;52.102;20.614;2023-03-01T00:18:36;69.70;;;34.80;;
20441;SDS011;10380;52.102;20.614;2023-03-01T00:21:03;71.30;;;37.40;;
20441;SDS011;10380;52.102;20.614;2023-03-01T00:23:31;72.77;;;33.30;;
20441;SDS011;10380;52.102;20.614;2023-03-01T00:25:59;72.67;;;35.60;;
20441;SDS011;10380;52.102;20.614;2023-03-01T00:28:26;68.57;;;36.03;;
20441;SDS011;10380;52.102;20.614;2023-03-01T00:30:53;75.33;;;35.43;;
20441;SDS011;10380;52.102;20.614;2023-03-01T00:33:20;71.70;;;35.40;;
20441;SDS011;10380;52.102;20.614;2023-03-01T00:35:47;77.20;;;35.20;;
20441;SDS011;10380;52.102;20.614;2023-03-01T00:38:14;67.53;;;35.20;;
20441;SDS011;10380;52.102;20.614;2023-03-01T00:40:41;71.93;;;35.07;;
20441;SDS011;10380;52.102;20.614;2023-03-01T00:43:08;67.93;;;33.77;;
20441;SDS011;10380;52.102;20.614;2023-03-01T00:45:36;68.73;;;34.50;;
20441;SDS011;10380;52.102;20.614;2023-03-01T00:48:04;63.07;;;32.60;;
20441;SDS011;10380;52.102;20.614;2023-03-01T00:50:32;66.03;;;33.73;;
20441;SDS011;10380;52.102;20.614;2023-03-01T00:53:00;71.93;;;34.57;;
20441;SDS011;10380;52.102;20.614;2023-03-01T00:55:28;73.57;;;36.10;;
20441;SDS011;10380;52.102;20.614;2023-03-01T00:57:55;67.63;;;35.00;;
20441;SDS011;10380;52.102;20.614;2023-03-01T01:00:21;65.07;;;34.53;;
20441;SDS011;10380;52.102;20.614;2023-03-01T01:02:48;72.30;;;34.97;;
20441;SDS011;10380;52.102;20.614;2023-03-01T01:05:16;67.37;;;34.80;;
20441;SDS011;10380;52.102;20.614;2023-03-01T01:07:47;75.73;;;34.37;;
20441;SDS011;10380;52.102;20.614;2023-03-01T01:10:15;70.97;;;35.73;;
20441;SDS011;10380;52.102;20.614;2023-03-01T01:12:44;60.53;;;33.23;;
20441;SDS011;10380;52.102;20.614;2023-03-01T01:15:11;73.43;;;35.40;;
20441;SDS011;10380;52.102;20.614;2023-03-01T01:17:40;69.47;;;35.53;;
20441;SDS011;10380;52.102;20.614;2023-03-01T01:20:08;78.63;;;37.10;;
20441;SDS011;10380;52.102;20.614;2023-03-01T01:22:35;90.67;;;42.07;;
20441;SDS011;10380;52.102;20.614;2023-03-01T01:25:02;124.77;;;51.93;;
20441;SDS011;10380;52.102;20.614;2023-03-01T01:27:29;110.47;;;48.93;;
20441;SDS011;10380;52.102;20.614;2023-03-01T01:29:56;84.53;;;40.50;;
20441;SDS011;10380;52.102;20.614;2023-03-01T01:32:23;75.57;;;37.00;;
20441;SDS011;10380;52.102;20.614;2023-03-01T01:34:52;68.13;;;36.43;;
20441;SDS011;10380;52.102;20.614;2023-03-01T01:37:19;64.90;;;34.23;;
20441;SDS011;10380;52.102;20.614;2023-03-01T01:39:46;76.23;;;33.93;;
20441;SDS011;10380;52.102;20.614;2023-03-01T01:42:17;69.93;;;34.70;;
20441;SDS011;10380;52.102;20.614;2023-03-01T01:44:45;62.37;;;33.20;;
20441;SDS011;10380;52.102;20.614;2023-03-01T01:47:17;69.90;;;32.53;;
20441;SDS011;10380;52.102;20.614;2023-03-01T01:49:47;63.40;;;32.57;;
20441;SDS011;10380;52.102;20.614;2023-03-01T01:55:11;63.63;;;32.77;;
20441;SDS011;10380;52.102;20.614;2023-03-01T01:57:48;73.37;;;33.17;;
20441;SDS011;10380;52.102;20.614;2023-03-01T02:00:22;63.63;;;32.03;;
20441;SDS011;10380;52.102;20.614;2023-03-01T02:02:55;65.67;;;32.43;;
20441;SDS011;10380;52.102;20.614;2023-03-01T02:05:29;67.40;;;31.47;;
20441;SDS011;10380;52.102;20.614;2023-03-01T02:13:24;68.33;;;32.50;;
20441;SDS011;10380;52.102;20.614;2023-03-01T02:15:52;60.87;;;31.87;;
20441;SDS011;10380;52.102;20.614;2023-03-01T02:18:20;57.87;;;29.30;;
20441;SDS011;10380;52.102;20.614;2023-03-01T02:21:36;65.47;;;32.80;;
20441;SDS011;10380;52.102;20.614;2023-03-01T02:23:37;64.67;;;31.03;;
20441;SDS011;10380;52.102;20.614;2023-03-01T02:26:09;64.67;;;31.40;;
20441;SDS011;10380;52.102;20.614;2023-03-01T02:28:47;61.73;;;30.50;;
20441;SDS011;10380;52.102;20.614;2023-03-01T02:31:15;57.37;;;33.07;;
20441;SDS011;10380;52.102;20.614;2023-03-01T02:34:03;68.23;;;33.07;;
20441;SDS011;10380;52.102;20.614;2023-03-01T02:36:37;66.60;;;33.27;;
20441;SDS011;10380;52.102;20.614;2023-03-01T02:39:07;69.60;;;35.43;;
20441;SDS011;10380;52.102;20.614;2023-03-01T02:41:41;72.67;;;33.67;;
20441;SDS011;10380;52.102;20.614;2023-03-01T02:44:10;66.33;;;33.90;;
20441;SDS011;10380;52.102;20.614;2023-03-01T02:46:46;64.67;;;31.70;;
20441;SDS011;10380;52.102;20.614;2023-03-01T02:49:30;61.80;;;31.13;;
20441;SDS011;10380;52.102;20.614;2023-03-01T02:52:43;66.27;;;33.30;;
20441;SDS011;10380;52.102;20.614;2023-03-01T02:57:41;62.70;;;31.97;;
20441;SDS011;10380;52.102;20.614;2023-03-01T03:00:15;63.83;;;28.77;;
20441;SDS011;10380;52.102;20.614;2023-03-01T03:02:51;60.77;;;31.13;;
20441;SDS011;10380;52.102;20.614;2023-03-01T03:05:21;60.27;;;31.27;;
20441;SDS011;10380;52.102;20.614;2023-03-01T03:07:50;61.47;;;30.40;;
20441;SDS011;10380;52.102;20.614;2023-03-01T03:10:22;66.03;;;30.77;;
20441;SDS011;10380;52.102;20.614;2023-03-01T03:12:53;59.00;;;31.87;;
20441;SDS011;10380;52.102;20.614;2023-03-01T03:15:42;57.97;;;30.10;;
20441;SDS011;10380;52.102;20.614;2023-03-01T03:18:10;58.80;;;31.27;;
20441;SDS011;10380;52.102;20.614;2023-03-01T03:20:40;63.60;;;30.60;;
20441;SDS011;10380;52.102;20.614;2023-03-01T03:23:07;55.57;;;29.13;;
20441;SDS011;10380;52.102;20.614;2023-03-01T03:25:34;59.60;;;29.17;;
20441;SDS011;10380;52.102;20.614;2023-03-01T03:28:06;58.23;;;30.70;;
20441;SDS011;10380;52.102;20.614;2023-03-01T03:30:37;62.23;;;30.17;;
20441;SDS011;10380;52.102;20.614;2023-03-01T03:33:06;53.00;;;29.07;;
20441;SDS011;10380;52.102;20.614;2023-03-01T03:35:37;54.43;;;29.77;;
20441;SDS011;10380;52.102;20.614;2023-03-01T03:38:07;61.83;;;30.83;;
20441;SDS011;10380;52.102;20.614;2023-03-01T03:40:45;60.23;;;30.00;;
20441;SDS011;10380;52.102;20.614;2023-03-01T03:43:15;58.30;;;28.57;;
20441;SDS011;10380;52.102;20.614;2023-03-01T03:45:47;57.73;;;29.67;;
20441;SDS011;10380;52.102;20.614;2023-03-01T03:48:16;62.43;;;30.20;;
20441;SDS011;10380;52.102;20.614;2023-03-01T03:50:47;54.73;;;27.93;;
20441;SDS011;10380;52.102;20.614;2023-03-01T03:53:18;61.80;;;29.77;;
20441;SDS011;10380;52.102;20.614;2023-03-01T03:55:47;59.60;;;28.50;;
20441;SDS011;10380;52.102;20.614;2023-03-01T03:58:18;54.83;;;29.07;;
20441;SDS011;10380;52.102;20.614;2023-03-01T04:00:47;51.17;;;26.60;;
20441;SDS011;10380;52.102;20.614;2023-03-01T04:03:17;48.33;;;26.50;;
20441;SDS011;10380;52.102;20.614;2023-03-01T04:05:46;48.40;;;26.87;;
20441;SDS011;10380;52.102;20.614;2023-03-01T04:08:13;55.80;;;27.30;;
20441;SDS011;10380;52.102;20.614;2023-03-01T04:10:44;48.47;;;26.63;;
20441;SDS011;10380;52.102;20.614;2023-03-01T04:13:16;50.43;;;28.70;;
20441;SDS011;10380;52.102;20.614;2023-03-01T04:15:49;50.20;;;24.90;;
20441;SDS011;10380;52.102;20.614;2023-03-01T04:18:18;49.77;;;25.40;;
20441;SDS011;10380;52.102;20.614;2023-03-01T04:20:46;56.20;;;26.10;;
20441;SDS011;10380;52.102;20.614;2023-03-01T04:23:18;51.57;;;26.87;;
20441;SDS011;10380;52.102;20.614;2023-03-01T04:25:53;52.53;;;25.67;;
20441;SDS011;10380;52.102;20.614;2023-03-01T04:28:33;44.20;;;23.67;;
20441;SDS011;10380;52.102;20.614;2023-03-01T04:31:07;45.17;;;24.77;;
20441;SDS011;10380;52.102;20.614;2023-03-01T04:33:45;42.37;;;23.77;;
20441;SDS011;10380;52.102;20.614;2023-03-01T04:36:14;46.37;;;24.50;;
20441;SDS011;10380;52.102;20.614;2023-03-01T04:38:42;47.50;;;26.47;;
20441;SDS011;10380;52.102;20.614;2023-03-01T04:41:14;46.63;;;25.67;;
20441;SDS011;10380;52.102;20.614;2023-03-01T04:43:44;47.37;;;25.97;;
20441;SDS011;10380;52.102;20.614;2023-03-01T04:46:12;52.20;;;25.57;;
20441;SDS011;10380;52.102;20.614;2023-03-01T04:48:41;58.13;;;27.87;;
20441;SDS011;10380;52.102;20.614;2023-03-01T04:51:11;59.93;;;28.57;;
20441;SDS011;10380;52.102;20.614;2023-03-01T04:53:43;48.27;;;24.70;;
20441;SDS011;10380;52.102;20.614;2023-03-01T04:56:10;58.53;;;27.23;;
20441;SDS011;10380;52.102;20.614;2023-03-01T04:58:41;63.90;;;28.37;;
20441;SDS011;10380;52.102;20.614;2023-03-01T05:01:18;69.47;;;27.93;;
20441;SDS011;10380;52.102;20.614;2023-03-01T05:03:47;61.20;;;28.90;;
20441;SDS011;10380;52.102;20.614;2023-03-01T05:06:15;69.27;;;28.77;;
20441;SDS011;10380;52.102;20.614;2023-03-01T05:08:43;65.57;;;29.33;;
20441;SDS011;10380;52.102;20.614;2023-03-01T05:11:10;68.10;;;30.17;;
20441;SDS011;10380;52.102;20.614;2023-03-01T05:13:38;74.13;;;30.10;;
20441;SDS011;10380;52.102;20.614;2023-03-01T05:16:06;65.33;;;29.50;;
20441;SDS011;10380;52.102;20.614;2023-03-01T05:18:39;72.23;;;30.90;;
20441;SDS011;10380;52.102;20.614;2023-03-01T05:21:07;65.93;;;30.10;;
20441;SDS011;10380;52.102;20.614;2023-03-01T05:23:37;69.83;;;29.50;;
20441;SDS011;10380;52.102;20.614;2023-03-01T05:26:05;65.33;;;27.33;;
20441;SDS011;10380;52.102;20.614;2023-03-01T05:28:36;56.93;;;26.77;;
20441;SDS011;10380;52.102;20.614;2023-03-01T05:31:04;54.13;;;26.20;;
20441;SDS011;10380;52.102;20.614;2023-03-01T05:33:36;59.93;;;26.67;;
20441;SDS011;10380;52.102;20.614;2023-03-01T05:36:05;52.07;;;24.70;;
20441;SDS011;10380;52.102;20.614;2023-03-01T05:38:33;48.63;;;24.70;;
20441;SDS011;10380;52.102;20.614;2023-03-01T05:41:00;46.23;;;22.97;;
20441;SDS011;10380;52.102;20.614;2023-03-01T05:43:30;44.77;;;23.57;;
20441;SDS011;10380;52.102;20.614;2023-03-01T05:46:00;45.77;;;23.00;;
20441;SDS011;10380;52.102;20.614;2023-03-01T05:48:27;41.70;;;24.00;;
20441;SDS011;10380;52.102;20.614;2023-03-01T05:50:53;39.33;;;23.03;;
20441;SDS011;10380;52.102;20.614;2023-03-01T05:53:20;47.80;;;23.83;;
20441;SDS011;10380;52.102;20.614;2023-03-01T05:55:47;42.57;;;23.57;;
20441;SDS011;10380;52.102;20.614;2023-03-01T05:58:17;43.27;;;23.37;;
20441;SDS011;10380;52.102;20.614;2023-03-01T06:00:46;44.40;;;22.80;;
20441;SDS011;10380;52.102;20.614;2023-03-01T06:03:14;45.07;;;23.10;;
20441;SDS011;10380;52.102;20.614;2023-03-01T06:05:43;50.27;;;25.97;;
20441;SDS011;10380;52.102;20.614;2023-03-01T06:08:11;45.90;;;25.07;;
20441;SDS011;10380;52.102;20.614;2023-03-01T06:10:39;54.27;;;25.07;;
20441;SDS011;10380;52.102;20.614;2023-03-01T06:13:08;46.87;;;23.13;;
20441;SDS011;10380;52.102;20.614;2023-03-01T06:15:35;48.23;;;25.70;;
20441;SDS011;10380;52.102;20.614;2023-03-01T06:18:01;49.77;;;25.57;;
20441;SDS011;10380;52.102;20.614;2023-03-01T06:20:29;42.87;;;24.73;;
20441;SDS011;10380;52.102;20.614;2023-03-01T06:22:56;48.70;;;24.30;;
20441;SDS011;10380;52.102;20.614;2023-03-01T06:25:24;60.30;;;29.20;;
20441;SDS011;10380;52.102;20.614;2023-03-01T06:27:53;49.77;;;24.00;;
20441;SDS011;10380;52.102;20.614;2023-03-01T06:30:22;49.00;;;25.23;;
20441;SDS011;10380;52.102;20.614;2023-03-01T06:32:51;50.40;;;26.93;;
20441;SDS011;10380;52.102;20.614;2023-03-01T06:35:19;50.70;;;25.97;;
20441;SDS011;10380;52.102;20.614;2023-03-01T06:37:47;48.30;;;25.03;;
20441;SDS011;10380;52.102;20.614;2023-03-01T06:40:20;42.60;;;23.93;;
20441;SDS011;10380;52.102;20.614;2023-03-01T06:42:48;44.37;;;24.13;;
20441;SDS011;10380;52.102;20.614;2023-03-01T06:45:19;37.63;;;22.63;;
20441;SDS011;10380;52.102;20.614;2023-03-01T06:47:48;42.23;;;23.17;;
20441;SDS011;10380;52.102;20.614;2023-03-01T06:50:16;44.43;;;24.83;;
20441;SDS011;10380;52.102;20.614;2023-03-01T06:52:44;40.33;;;24.23;;
20441;SDS011;10380;52.102;20.614;2023-03-01T06:55:14;46.50;;;23.33;;
20441;SDS011;10380;52.102;20.614;2023-03-01T06:57:40;50.27;;;26.13;;
20441;SDS011;10380;52.102;20.614;2023-03-01T07:00:08;44.57;;;25.90;;
20441;SDS011;10380;52.102;20.614;2023-03-01T07:02:36;40.67;;;22.53;;
20441;SDS011;10380;52.102;20.614;2023-03-01T07:05:03;47.63;;;25.77;;
20441;SDS011;10380;52.102;20.614;2023-03-01T07:07:30;46.30;;;25.13;;
20441;SDS011;10380;52.102;20.614;2023-03-01T07:09:57;43.53;;;24.83;;
20441;SDS011;10380;52.102;20.614;2023-03-01T07:12:24;47.53;;;25.03;;
20441;SDS011;10380;52.102;20.614;2023-03-01T07:14:51;42.43;;;24.53;;
20441;SDS011;10380;52.102;20.614;2023-03-01T07:17:17;44.50;;;25.43;;
20441;SDS011;10380;52.102;20.614;2023-03-01T07:19:44;47.17;;;25.20;;
20441;SDS011;10380;52.102;20.614;2023-03-01T07:22:11;43.53;;;24.50;;
20441;SDS011;10380;52.102;20.614;2023-03-01T07:24:38;47.87;;;25.00;;
20441;SDS011;10380;52.102;20.614;2023-03-01T07:27:06;44.37;;;24.10;;
20441;SDS011;10380;52.102;20.614;2023-03-01T07:29:33;45.17;;;25.60;;
20441;SDS011;10380;52.102;20.614;2023-03-01T07:32:03;41.30;;;24.03;;
20441;SDS011;10380;52.102;20.614;2023-03-01T07:34:30;44.20;;;23.50;;
20441;SDS011;10380;52.102;20.614;2023-03-01T07:36:58;43.93;;;25.30;;
20441;SDS011;10380;52.102;20.614;2023-03-01T07:39:25;47.40;;;24.90;;
20441;SDS011;10380;52.102;20.614;2023-03-01T07:41:52;46.77;;;25.70;;
20441;SDS011;10380;52.102;20.614;2023-03-01T07:44:19;43.10;;;22.77;;
20441;SDS011;10380;52.102;20.614;2023-03-01T07:46:46;43.07;;;23.63;;
20441;SDS011;10380;52.102;20.614;2023-03-01T07:49:12;43.33;;;23.77;;
20441;SDS011;10380;52.102;20.614;2023-03-01T07:51:40;40.27;;;22.80;;
20441;SDS011;10380;52.102;20.614;2023-03-01T07:54:08;43.30;;;23.80;;
20441;SDS011;10380;52.102;20.614;2023-03-01T07:56:35;41.37;;;23.03;;
20441;SDS011;10380;52.102;20.614;2023-03-01T07:59:02;45.07;;;23.53;;
20441;SDS011;10380;52.102;20.614;2023-03-01T08:01:29;41.57;;;23.00;;
20441;SDS011;10380;52.102;20.614;2023-03-01T08:03:56;38.70;;;20.50;;
20441;SDS011;10380;52.102;20.614;2023-03-01T08:06:23;41.07;;;23.20;;
20441;SDS011;10380;52.102;20.614;2023-03-01T08:08:49;44.63;;;22.83;;
20441;SDS011;10380;52.102;20.614;2023-03-01T08:11:16;37.00;;;21.43;;
20441;SDS011;10380;52.102;20.614;2023-03-01T08:13:43;37.33;;;22.90;;
20441;SDS011;10380;52.102;20.614;2023-03-01T08:16:12;45.67;;;22.30;;
20441;SDS011;10380;52.102;20.614;2023-03-01T08:18:41;39.13;;;21.20;;
20441;SDS011;10380;52.102;20.614;2023-03-01T08:21:10;32.27;;;17.73;;
20441;SDS011;10380;52.102;20.614;2023-03-01T08:23:38;30.63;;;17.27;;
20441;SDS011;10380;52.102;20.614;2023-03-01T08:26:06;30.40;;;16.83;;
20441;SDS011;10380;52.102;20.614;2023-03-01T08:28:35;35.60;;;20.50;;
20441;SDS011;10380;52.102;20.614;2023-03-01T08:31:02;55.13;;;29.73;;
20441;SDS011;10380;52.102;20.614;2023-03-01T08:33:29;42.80;;;22.70;;
20441;SDS011;10380;52.102;20.614;2023-03-01T08:36:04;24.47;;;13.83;;
20441;SDS011;10380;52.102;20.614;2023-03-01T08:38:33;36.40;;;20.10;;
20441;SDS011;10380;52.102;20.614;2023-03-01T08:41:01;33.27;;;20.37;;
20441;SDS011;10380;52.102;20.614;2023-03-01T08:43:29;31.63;;;19.53;;
20441;SDS011;10380;52.102;20.614;2023-03-01T08:45:56;28.43;;;17.93;;
20441;SDS011;10380;52.102;20.614;2023-03-01T08:48:23;33.50;;;18.90;;
20441;SDS011;10380;52.102;20.614;2023-03-01T08:50:50;34.70;;;20.37;;
20441;SDS011;10380;52.102;20.614;2023-03-01T08:53:17;36.83;;;20.83;;
20441;SDS011;10380;52.102;20.614;2023-03-01T08:55:43;29.70;;;18.40;;
20441;SDS011;10380;52.102;20.614;2023-03-01T08:58:10;30.47;;;17.43;;
20441;SDS011;10380;52.102;20.614;2023-03-01T09:00:37;30.73;;;19.40;;
20441;SDS011;10380;52.102;20.614;2023-03-01T09:03:04;28.23;;;15.00;;
20441;SDS011;10380;52.102;20.614;2023-03-01T09:05:32;19.97;;;12.30;;
20441;SDS011;10380;52.102;20.614;2023-03-01T09:08:00;173.53;;;89.67;;
20441;SDS011;10380;52.102;20.614;2023-03-01T09:10:27;55.50;;;33.37;;
20441;SDS011;10380;52.102;20.614;2023-03-01T09:12:54;32.67;;;21.77;;
20441;SDS011;10380;52.102;20.614;2023-03-01T09:15:21;32.87;;;17.00;;
20441;SDS011;10380;52.102;20.614;2023-03-01T09:17:48;32.27;;;17.20;;
20441;SDS011;10380;52.102;20.614;2023-03-01T09:20:15;27.93;;;16.07;;
20441;SDS011;10380;52.102;20.614;2023-03-01T09:22:42;33.27;;;18.30;;
20441;SDS011;10380;52.102;20.614;2023-03-01T09:25:10;34.90;;;19.50;;
20441;SDS011;10380;52.102;20.614;2023-03-01T09:27:36;24.73;;;12.20;;
20441;SDS011;10380;52.102;20.614;2023-03-01T09:30:03;30.67;;;16.90;;
20441;SDS011;10380;52.102;20.614;2023-03-01T09:32:31;22.50;;;13.20;;
20441;SDS011;10380;52.102;20.614;2023-03-01T09:34:58;33.37;;;18.33;;
20441;SDS011;10380;52.102;20.614;2023-03-01T09:37:31;26.17;;;16.57;;
20441;SDS011;10380;52.102;20.614;2023-03-01T09:39:59;33.43;;;18.67;;
20441;SDS011;10380;52.102;20.614;2023-03-01T09:42:27;31.37;;;17.67;;
20441;SDS011;10380;52.102;20.614;2023-03-01T09:47:32;37.20;;;20.57;;
20441;SDS011;10380;52.102;20.614;2023-03-01T09:50:06;34.40;;;19.27;;
20441;SDS011;10380;52.102;20.614;2023-03-01T09:52:44;24.57;;;14.47;;
20441;SDS011;10380;52.102;20.614;2023-03-01T09:55:31;25.17;;;13.97;;
20441;SDS011;10380;52.102;20.614;2023-03-01T10:00:54;30.80;;;17.33;;
20441;SDS011;10380;52.102;20.614;2023-03-01T10:03:34;31.47;;;17.37;;
20441;SDS011;10380;52.102;20.614;2023-03-01T10:09:05;29.23;;;17.67;;
20441;SDS011;10380;52.102;20.614;2023-03-01T10:11:41;24.43;;;14.57;;
20441;SDS011;10380;52.102;20.614;2023-03-01T10:14:27;31.30;;;17.27;;
20441;SDS011;10380;52.102;20.614;2023-03-01T10:19:52;27.80;;;16.67;;
20441;SDS011;10380;52.102;20.614;2023-03-01T10:22:28;28.00;;;14.10;;
20441;SDS011;10380;52.102;20.614;2023-03-01T10:24:58;27.80;;;15.80;;
20441;SDS011;10380;52.102;20.614;2023-03-01T10:27:38;29.53;;;16.00;;
20441;SDS011;10380;52.102;20.614;2023-03-01T10:30:22;26.70;;;15.37;;
20441;SDS011;10380;52.102;20.614;2023-03-01T10:33:00;30.57;;;16.03;;
20441;SDS011;10380;52.102;20.614;2023-03-01T10:35:29;26.60;;;14.57;;
20441;SDS011;10380;52.102;20.614;2023-03-01T10:40:32;23.03;;;14.13;;
20441;SDS011;10380;52.102;20.614;2023-03-01T10:43:02;26.93;;;15.77;;
20441;SDS011;10380;52.102;20.614;2023-03-01T10:45:32;27.23;;;14.87;;
20441;SDS011;10380;52.102;20.614;2023-03-01T10:48:08;20.23;;;10.57;;
20441;SDS011;10380;52.102;20.614;2023-03-01T10:51:04;20.30;;;12.23;;
20441;SDS011;10380;52.102;20.614;2023-03-01T10:53:33;23.13;;;13.23;;
20441;SDS011;10380;52.102;20.614;2023-03-01T10:56:07;20.77;;;12.07;;
20441;SDS011;10380;52.102;20.614;2023-03-01T10:58:56;21.80;;;12.60;;
20441;SDS011;10380;52.102;20.614;2023-03-01T11:06:36;17.10;;;9.87;;
20441;SDS011;10380;52.102;20.614;2023-03-01T11:11:57;18.03;;;10.80;;
20441;SDS011;10380;52.102;20.614;2023-03-01T11:14:47;17.73;;;10.37;;
20441;SDS011;10380;52.102;20.614;2023-03-01T11:17:29;15.53;;;9.87;;
20441;SDS011;10380;52.102;20.614;2023-03-01T11:22:52;17.20;;;8.97;;
20441;SDS011;10380;52.102;20.614;2023-03-01T11:25:23;20.20;;;11.40;;
20441;SDS011;10380;52.102;20.614;2023-03-01T11:27:56;19.10;;;12.07;;
20441;SDS011;10380;52.102;20.614;2023-03-01T11:35:27;20.83;;;11.40;;
20441;SDS011;10380;52.102;20.614;2023-03-01T11:40:29;22.17;;;13.93;;
20441;SDS011;10380;52.102;20.614;2023-03-01T11:43:19;17.73;;;11.30;;
20441;SDS011;10380;52.102;20.614;2023-03-01T11:51:29;17.37;;;10.97;;
20441;SDS011;10380;52.102;20.614;2023-03-01T11:54:32;16.07;;;9.93;;
20441;SDS011;10380;52.102;20.614;2023-03-01T12:00:06;17.93;;;10.80;;
20441;SDS011;10380;52.102;20.614;2023-03-01T12:11:33;23.27;;;12.80;;
20441;SDS011;10380;52.102;20.614;2023-03-01T12:22:22;19.73;;;11.67;;
20441;SDS011;10380;52.102;20.614;2023-03-01T12:27:46;23.00;;;12.40;;
20441;SDS011;10380;52.102;20.614;2023-03-01T12:30:39;19.10;;;12.00;;
20441;SDS011;10380;52.102;20.614;2023-03-01T12:47:00;31.03;;;17.67;;
20441;SDS011;10380;52.102;20.614;2023-03-01T12:49:55;51.40;;;24.53;;
20441;SDS011;10380;52.102;20.614;2023-03-01T12:52:33;70.70;;;30.27;;
20441;SDS011;10380;52.102;20.614;2023-03-01T12:55:02;39.93;;;19.30;;
20441;SDS011;10380;52.102;20.614;2023-03-01T12:57:50;31.20;;;16.90;;
20441;SDS011;10380;52.102;20.614;2023-03-01T13:00:32;29.23;;;16.23;;
20441;SDS011;10380;52.102;20.614;2023-03-01T13:03:29;38.20;;;19.37;;
20441;SDS011;10380;52.102;20.614;2023-03-01T13:06:11;42.60;;;19.47;;
20441;SDS011;10380;52.102;20.614;2023-03-01T13:09:11;42.90;;;20.00;;
20441;SDS011;10380;52.102;20.614;2023-03-01T13:11:45;25.47;;;15.83;;
20441;SDS011;10380;52.102;20.614;2023-03-01T13:16:49;24.63;;;15.20;;
20441;SDS011;10380;52.102;20.614;2023-03-01T13:19:27;22.57;;;13.53;;
20441;SDS011;10380;52.102;20.614;2023-03-01T13:22:25;27.53;;;15.57;;
20441;SDS011;10380;52.102;20.614;2023-03-01T13:25:00;29.50;;;17.00;;
20441;SDS011;10380;52.102;20.614;2023-03-01T13:27:38;24.70;;;14.83;;
20441;SDS011;10380;52.102;20.614;2023-03-01T13:30:11;26.23;;;14.57;;
20441;SDS011;10380;52.102;20.614;2023-03-01T13:33:33;23.43;;;13.13;;
20441;SDS011;10380;52.102;20.614;2023-03-01T13:36:07;23.93;;;14.50;;
20441;SDS011;10380;52.102;20.614;2023-03-01T13:41:13;20.53;;;13.60;;
20441;SDS011;10380;52.102;20.614;2023-03-01T13:43:42;21.37;;;13.00;;
20441;SDS011;10380;52.102;20.614;2023-03-01T13:46:16;17.23;;;11.20;;
20441;SDS011;10380;52.102;20.614;2023-03-01T13:48:47;21.90;;;14.20;;
20441;SDS011;10380;52.102;20.614;2023-03-01T13:51:20;22.43;;;13.00;;
20441;SDS011;10380;52.102;20.614;2023-03-01T13:53:54;25.23;;;14.37;;
20441;SDS011;10380;52.102;20.614;2023-03-01T13:56:24;19.87;;;13.37;;
20441;SDS011;10380;52.102;20.614;2023-03-01T13:58:58;21.80;;;12.97;;
20441;SDS011;10380;52.102;20.614;2023-03-01T14:01:29;20.13;;;12.47;;
20441;SDS011;10380;52.102;20.614;2023-03-01T14:04:02;21.37;;;13.70;;
20441;SDS011;10380;52.102;20.614;2023-03-01T14:06:44;19.03;;;11.87;;
20441;SDS011;10380;52.102;20.614;2023-03-01T14:09:21;17.10;;;11.27;;
20441;SDS011;10380;52.102;20.614;2023-03-01T14:12:03;19.53;;;13.13;;
20441;SDS011;10380;52.102;20.614;2023-03-01T14:17:50;21.13;;;13.83;;
20441;SDS011;10380;52.102;20.614;2023-03-01T14:20:29;18.73;;;13.57;;
20441;SDS011;10380;52.102;20.614;2023-03-01T14:22:59;21.10;;;12.80;;
20441;SDS011;10380;52.102;20.614;2023-03-01T14:25:35;20.53;;;12.33;;
20441;SDS011;10380;52.102;20.614;2023-03-01T14:30:59;18.33;;;12.03;;
20441;SDS011;10380;52.102;20.614;2023-03-01T14:33:31;17.37;;;11.27;;
20441;SDS011;10380;52.102;20.614;2023-03-01T14:36:01;19.90;;;11.70;;
20441;SDS011;10380;52.102;20.614;2023-03-01T14:41:17;16.33;;;10.80;;
20441;SDS011;10380;52.102;20.614;2023-03-01T14:43:48;19.50;;;10.77;;
20441;SDS011;10380;52.102;20.614;2023-03-01T14:46:37;21.07;;;10.83;;
20441;SDS011;10380;52.102;20.614;2023-03-01T14:51:42;24.03;;;11.53;;
20441;SDS011;10380;52.102;20.614;2023-03-01T14:56:57;21.73;;;11.93;;
20441;SDS011;10380;52.102;20.614;2023-03-01T14:59:26;22.20;;;12.00;;
20441;SDS011;10380;52.102;20.614;2023-03-01T15:01:55;16.80;;;10.23;;
20441;SDS011;10380;52.102;20.614;2023-03-01T15:04:24;18.40;;;12.83;;
20441;SDS011;10380;52.102;20.614;2023-03-01T15:06:55;17.43;;;11.20;;
20441;SDS011;10380;52.102;20.614;2023-03-01T15:09:32;21.97;;;13.33;;
20441;SDS011;10380;52.102;20.614;2023-03-01T15:12:23;18.53;;;11.23;;
20441;SDS011;10380;52.102;20.614;2023-03-01T15:14:53;19.97;;;11.90;;
20441;SDS011;10380;52.102;20.614;2023-03-01T15:17:34;20.97;;;12.23;;
20441;SDS011;10380;52.102;20.614;2023-03-01T15:20:05;21.90;;;13.20;;
20441;SDS011;10380;52.102;20.614;2023-03-01T15:22:45;22.57;;;12.33;;
20441;SDS011;10380;52.102;20.614;2023-03-01T15:25:16;20.47;;;13.00;;
20441;SDS011;10380;52.102;20.614;2023-03-01T15:27:46;21.60;;;11.87;;
20441;SDS011;10380;52.102;20.614;2023-03-01T15:30:17;23.63;;;13.73;;
20441;SDS011;10380;52.102;20.614;2023-03-01T15:33:46;23.17;;;14.50;;
20441;SDS011;10380;52.102;20.614;2023-03-01T15:35:53;25.57;;;13.13;;
20441;SDS011;10380;52.102;20.614;2023-03-01T15:38:23;28.03;;;16.37;;
20441;SDS011;10380;52.102;20.614;2023-03-01T15:43:49;36.67;;;18.40;;
20441;SDS011;10380;52.102;20.614;2023-03-01T15:46:21;36.23;;;19.10;;
20441;SDS011;10380;52.102;20.614;2023-03-01T15:48:53;28.97;;;14.87;;
20441;SDS011;10380;52.102;20.614;2023-03-01T15:51:27;51.23;;;22.57;;
20441;SDS011;10380;52.102;20.614;2023-03-01T15:54:00;63.80;;;26.87;;
20441;SDS011;10380;52.102;20.614;2023-03-01T15:56:29;73.93;;;31.57;;
20441;SDS011;10380;52.102;20.614;2023-03-01T15:58:57;84.17;;;34.47;;
20441;SDS011;10380;52.102;20.614;2023-03-01T16:01:25;90.20;;;37.97;;
20441;SDS011;10380;52.102;20.614;2023-03-01T16:03:52;96.97;;;41.17;;
20441;SDS011;10380;52.102;20.614;2023-03-01T16:06:20;97.23;;;42.00;;
20441;SDS011;10380;52.102;20.614;2023-03-01T16:08:47;76.77;;;35.97;;
20441;SDS011;10380;52.102;20.614;2023-03-01T16:11:17;73.93;;;37.30;;
20441;SDS011;10380;52.102;20.614;2023-03-01T16:13:45;53.57;;;27.97;;
20441;SDS011;10380;52.102;20.614;2023-03-01T16:16:13;54.13;;;26.57;;
20441;SDS011;10380;52.102;20.614;2023-03-01T16:18:43;41.37;;;21.67;;
20441;SDS011;10380;52.102;20.614;2023-03-01T16:21:13;37.83;;;20.40;;